Time,TemperatureF,DewpointF,PressureIn,WindDirection,WindDirectionDegrees,WindSpeedMPH,WindSpeedGustMPH,Humidity,HourlyPrecipIn,Conditions,Clouds,dailyrainin,SoftwareType,DateUTC
2013-10-10 00:04:00,52.7,50.0,30.12,NE,38,0.0,1.0,89,0.00,,,0.00,weatherlink.com 1.10,2013-10-10 04:04:00,
2013-10-10 00:19:00,51.9,49.0,30.12,NE,40,0.0,2.0,91,0.00,,,0.00,weatherlink.com 1.10,2013-10-10 04:19:00,
2013-10-10 00:34:00,51.4,49.0,30.11,NE,40,0.0,1.0,92,0.00,,,0.00,weatherlink.com 1.10,2013-10-10 04:34:00,
2013-10-10 00:49:00,51.7,49.0,30.11,NE,40,0.0,0.0,90,0.00,,,0.00,weatherlink.com 1.10,2013-10-10 04:49:00,
2013-10-10 01:05:00,51.5,49.0,30.11,NE,40,0.0,2.0,91,0.00,,,0.00,weatherlink.com 1.10,2013-10-10 05:05:00,
2013-10-10 01:19:00,50.6,48.0,30.10,NE,40,0.0,1.0,92,0.00,,,0.00,weatherlink.com 1.10,2013-10-10 05:19:00,
2013-10-10 01:34:00,50.4,48.0,30.10,NE,40,0.0,1.0,92,0.00,,,0.00,weatherlink.com 1.10,2013-10-10 05:34:00,
2013-10-10 01:49:00,50.4,48.0,30.10,NE,40,0.0,1.0,92,0.00,,,0.00,weatherlink.com 1.10,2013-10-10 05:49:00,
2013-10-10 02:04:00,49.9,48.0,30.10,NE,40,0.0,0.0,93,0.00,,,0.00,weatherlink.com 1.10,2013-10-10 06:04:00,
2013-10-10 02:19:00,49.4,48.0,30.10,NE,40,0.0,0.0,93,0.00,,,0.00,weatherlink.com 1.10,2013-10-10 06:19:00,
2013-10-10 02:35:00,48.9,47.0,30.09,NE,40,0.0,0.0,94,0.00,,,0.00,weatherlink.com 1.10,2013-10-10 06:35:00,
2013-10-10 02:49:00,49.1,48.0,30.09,NE,40,0.0,0.0,94,0.00,,,0.00,weatherlink.com 1.10,2013-10-10 06:49:00,
2013-10-10 03:04:00,48.7,47.0,30.09,NE,40,0.0,0.0,94,0.00,,,0.00,weatherlink.com 1.10,2013-10-10 07:04:00,
2013-10-10 03:19:00,48.2,47.0,30.09,NE,40,0.0,0.0,94,0.00,,,0.00,weatherlink.com 1.10,2013-10-10 07:19:00,
2013-10-10 03:34:00,49.2,48.0,30.09,NE,40,0.0,1.0,94,0.00,,,0.00,weatherlink.com 1.10,2013-10-10 07:34:00,
2013-10-10 03:49:00,48.2,47.0,30.09,NE,40,0.0,1.0,94,0.00,,,0.00,weatherlink.com 1.10,2013-10-10 07:49:00,
2013-10-10 04:04:00,48.5,47.0,30.08,NE,40,0.0,1.0,94,0.00,,,0.00,weatherlink.com 1.10,2013-10-10 08:04:00,
2013-10-10 04:19:00,49.4,48.0,30.09,East,81,0.0,3.0,94,0.00,,,0.00,weatherlink.com 1.10,2013-10-10 08:19:00,
2013-10-10 04:34:00,48.3,47.0,30.08,NE,52,0.0,1.0,94,0.00,,,0.00,weatherlink.com 1.10,2013-10-10 08:34:00,
2013-10-10 04:49:00,48.6,47.0,30.08,NE,52,0.0,1.0,94,0.00,,,0.00,weatherlink.com 1.10,2013-10-10 08:49:00,
2013-10-10 05:04:00,48.6,47.0,30.08,NE,52,0.0,1.0,94,0.00,,,0.00,weatherlink.com 1.10,2013-10-10 09:04:00,
2013-10-10 05:19:00,48.5,47.0,30.09,NE,52,0.0,0.0,94,0.00,,,0.00,weatherlink.com 1.10,2013-10-10 09:19:00,
2013-10-10 05:34:00,48.1,47.0,30.08,NE,52,0.0,1.0,94,0.00,,,0.00,weatherlink.com 1.10,2013-10-10 09:34:00,
2013-10-10 05:49:00,47.2,46.0,30.08,NE,52,0.0,0.0,94,0.00,,,0.00,weatherlink.com 1.10,2013-10-10 09:49:00,
2013-10-10 06:04:00,47.1,46.0,30.08,NE,52,0.0,0.0,94,0.00,,,0.00,weatherlink.com 1.10,2013-10-10 10:04:00,
2013-10-10 06:19:00,46.9,46.0,30.08,NE,52,0.0,0.0,95,0.00,,,0.00,weatherlink.com 1.10,2013-10-10 10:19:00,
2013-10-10 06:34:00,46.5,45.0,30.08,NE,52,0.0,0.0,95,0.00,,,0.00,weatherlink.com 1.10,2013-10-10 10:34:00,
2013-10-10 06:49:00,46.2,45.0,30.09,NE,52,0.0,0.0,94,0.00,,,0.00,weatherlink.com 1.10,2013-10-10 10:49:00,
2013-10-10 07:04:00,46.3,45.0,30.08,NE,52,0.0,2.0,94,0.00,,,0.00,weatherlink.com 1.10,2013-10-10 11:04:00,
2013-10-10 07:19:00,46.0,44.0,30.08,NE,52,0.0,1.0,94,0.00,,,0.00,weatherlink.com 1.10,2013-10-10 11:19:00,
2013-10-10 07:34:00,45.7,44.0,30.08,NE,52,0.0,1.0,94,0.00,,,0.00,weatherlink.com 1.10,2013-10-10 11:34:00,
2013-10-10 07:49:00,45.8,44.0,30.08,NE,52,0.0,1.0,94,0.00,,,0.00,weatherlink.com 1.10,2013-10-10 11:49:00,
2013-10-10 08:04:00,45.6,44.0,30.08,NE,52,0.0,1.0,94,0.00,,,0.00,weatherlink.com 1.10,2013-10-10 12:04:00,
2013-10-10 08:19:00,46.0,44.0,30.09,NE,52,0.0,0.0,94,0.00,,,0.00,weatherlink.com 1.10,2013-10-10 12:19:00,
2013-10-10 08:35:00,47.5,46.0,30.09,NE,52,0.0,1.0,93,0.00,,,0.00,weatherlink.com 1.10,2013-10-10 12:35:00,
2013-10-10 08:50:00,48.7,47.0,30.09,NE,52,0.0,1.0,95,0.00,,,0.00,weatherlink.com 1.10,2013-10-10 12:50:00,
2013-10-10 09:05:00,49.8,48.0,30.09,NE,52,0.0,1.0,94,0.00,,,0.00,weatherlink.com 1.10,2013-10-10 13:05:00,
2013-10-10 09:35:00,53.4,50.0,30.09,West,276,1.0,2.0,87,0.00,,,0.00,weatherlink.com 1.10,2013-10-10 13:35:00,
2013-10-10 09:50:00,54.2,51.0,30.09,West,276,0.0,0.0,88,0.00,,,0.00,weatherlink.com 1.10,2013-10-10 13:50:00,
2013-10-10 10:05:00,56.0,52.0,30.09,West,276,0.0,0.0,85,0.00,,,0.00,weatherlink.com 1.10,2013-10-10 14:05:00,
2013-10-10 10:20:00,58.4,52.0,30.09,West,263,1.0,4.0,79,0.00,,,0.00,weatherlink.com 1.10,2013-10-10 14:20:00,
2013-10-10 10:35:00,59.6,53.0,30.09,NW,321,1.0,2.0,78,0.00,,,0.00,weatherlink.com 1.10,2013-10-10 14:35:00,
2013-10-10 10:50:00,61.6,53.0,30.09,NNE,22,0.0,1.0,74,0.00,,,0.00,weatherlink.com 1.10,2013-10-10 14:50:00,
2013-10-10 11:05:00,63.3,52.0,30.08,WSW,248,0.0,3.0,66,0.00,,,0.00,weatherlink.com 1.10,2013-10-10 15:05:00,
2013-10-10 11:20:00,64.2,53.0,30.08,SW,215,1.0,2.0,66,0.00,,,0.00,weatherlink.com 1.10,2013-10-10 15:20:00,
2013-10-10 11:35:00,66.0,56.0,30.08,NNW,347,0.0,5.0,69,0.00,,,0.00,weatherlink.com 1.10,2013-10-10 15:35:00,
2013-10-10 11:50:00,66.9,51.0,30.07,NW,317,2.0,6.0,57,0.00,,,0.00,weatherlink.com 1.10,2013-10-10 15:50:00,
2013-10-10 12:05:00,68.1,55.0,30.07,NW,321,2.0,7.0,63,0.00,,,0.00,weatherlink.com 1.10,2013-10-10 16:05:00,
2013-10-10 12:20:00,68.3,54.0,30.06,NW,323,1.0,4.0,61,0.00,,,0.00,weatherlink.com 1.10,2013-10-10 16:20:00,
2013-10-10 12:35:00,70.1,56.0,30.05,ENE,62,5.0,5.0,61,0.00,,,0.00,weatherlink.com 1.10,2013-10-10 16:35:00,
2013-10-10 12:50:00,70.4,54.0,30.05,NNE,17,0.0,5.0,56,0.00,,,0.00,weatherlink.com 1.10,2013-10-10 16:50:00,
2013-10-10 13:05:00,70.4,55.0,30.04,ESE,112,0.0,5.0,58,0.00,,,0.00,weatherlink.com 1.10,2013-10-10 17:05:00,
2013-10-10 13:20:00,72.0,56.0,30.04,NNE,32,3.0,9.0,57,0.00,,,0.00,weatherlink.com 1.10,2013-10-10 17:20:00,
2013-10-10 13:35:00,72.1,54.0,30.03,WNW,299,1.0,8.0,54,0.00,,,0.00,weatherlink.com 1.10,2013-10-10 17:35:00,
2013-10-10 13:50:00,72.7,57.0,30.02,North,355,8.0,10.0,58,0.00,,,0.00,weatherlink.com 1.10,2013-10-10 17:50:00,
2013-10-10 14:06:00,72.9,57.0,30.02,NNE,33,2.0,9.0,57,0.00,,,0.00,weatherlink.com 1.10,2013-10-10 18:06:00,
2013-10-10 14:21:00,74.2,56.0,30.01,North,355,5.0,9.0,53,0.00,,,0.00,weatherlink.com 1.10,2013-10-10 18:21:00,
2013-10-10 14:36:00,74.1,56.0,30.00,North,355,3.0,9.0,54,0.00,,,0.00,weatherlink.com 1.10,2013-10-10 18:36:00,
2013-10-10 14:51:00,75.3,56.0,30.00,NNE,13,5.0,10.0,51,0.00,,,0.00,weatherlink.com 1.10,2013-10-10 18:51:00,
2013-10-10 15:06:00,76.0,57.0,30.00,North,11,4.0,8.0,52,0.00,,,0.00,weatherlink.com 1.10,2013-10-10 19:06:00,
2013-10-10 15:21:00,76.6,59.0,29.99,ENE,78,8.0,9.0,55,0.00,,,0.00,weatherlink.com 1.10,2013-10-10 19:21:00,
2013-10-10 15:36:00,75.4,58.0,29.99,NNW,343,3.0,6.0,55,0.00,,,0.00,weatherlink.com 1.10,2013-10-10 19:36:00,
2013-10-10 15:51:00,75.8,58.0,29.99,North,9,3.0,9.0,54,0.00,,,0.00,weatherlink.com 1.10,2013-10-10 19:51:00,
2013-10-10 16:06:00,77.0,59.0,29.99,North,350,3.0,11.0,54,0.00,,,0.00,weatherlink.com 1.10,2013-10-10 20:06:00,
2013-10-10 16:21:00,76.4,59.0,29.99,NNE,22,4.0,9.0,56,0.00,,,0.00,weatherlink.com 1.10,2013-10-10 20:21:00,
2013-10-10 16:36:00,75.7,60.0,29.98,WNW,290,2.0,7.0,58,0.00,,,0.00,weatherlink.com 1.10,2013-10-10 20:36:00,
2013-10-10 16:51:00,75.7,60.0,29.98,East,80,5.0,10.0,59,0.00,,,0.00,weatherlink.com 1.10,2013-10-10 20:51:00,
2013-10-10 17:06:00,73.6,61.0,29.98,NNW,337,2.0,5.0,65,0.00,,,0.00,weatherlink.com 1.10,2013-10-10 21:06:00,
2013-10-10 17:21:00,74.2,62.0,29.98,NW,319,3.0,10.0,65,0.00,,,0.00,weatherlink.com 1.10,2013-10-10 21:21:00,
2013-10-10 17:36:00,73.5,62.0,29.97,North,360,2.0,7.0,67,0.00,,,0.00,weatherlink.com 1.10,2013-10-10 21:36:00,
2013-10-10 17:51:00,74.0,62.0,29.97,NW,325,1.0,8.0,66,0.00,,,0.00,weatherlink.com 1.10,2013-10-10 21:51:00,
2013-10-10 18:07:00,72.4,61.0,29.97,NNE,26,5.0,7.0,68,0.00,,,0.00,weatherlink.com 1.10,2013-10-10 22:07:00,
2013-10-10 18:21:00,71.0,62.0,29.97,NE,37,0.0,5.0,74,0.00,,,0.00,weatherlink.com 1.10,2013-10-10 22:21:00,
2013-10-10 18:36:00,69.1,62.0,29.97,NE,46,0.0,3.0,78,0.00,,,0.00,weatherlink.com 1.10,2013-10-10 22:36:00,
2013-10-10 18:51:00,67.7,62.0,29.97,NE,54,0.0,2.0,83,0.00,,,0.00,weatherlink.com 1.10,2013-10-10 22:51:00,
2013-10-10 19:06:00,67.6,62.0,29.98,NE,54,0.0,1.0,83,0.00,,,0.00,weatherlink.com 1.10,2013-10-10 23:06:00,
2013-10-10 19:21:00,67.1,63.0,29.98,NE,54,0.0,2.0,85,0.00,,,0.00,weatherlink.com 1.10,2013-10-10 23:21:00,
2013-10-10 19:36:00,67.2,63.0,29.98,ENE,69,0.0,3.0,85,0.00,,,0.00,weatherlink.com 1.10,2013-10-10 23:36:00,
2013-10-10 19:51:00,67.0,62.0,29.98,ESE,123,0.0,3.0,85,0.00,,,0.00,weatherlink.com 1.10,2013-10-10 23:51:00,
2013-10-10 20:06:00,66.2,62.0,29.99,SE,124,0.0,0.0,86,0.00,,,0.00,weatherlink.com 1.10,2013-10-11 00:06:00,
2013-10-10 20:21:00,65.2,61.0,29.99,ESE,113,1.0,2.0,87,0.00,,,0.00,weatherlink.com 1.10,2013-10-11 00:21:00,
2013-10-10 20:36:00,64.5,61.0,29.99,ESE,113,0.0,1.0,89,0.00,,,0.00,weatherlink.com 1.10,2013-10-11 00:36:00,
2013-10-10 20:51:00,63.8,61.0,29.99,ESE,113,0.0,1.0,90,0.00,,,0.00,weatherlink.com 1.10,2013-10-11 00:51:00,
2013-10-10 21:06:00,63.6,61.0,29.99,ESE,113,0.0,0.0,91,0.00,,,0.00,weatherlink.com 1.10,2013-10-11 01:06:00,
2013-10-10 21:21:00,63.6,61.0,29.99,ESE,113,0.0,1.0,91,0.00,,,0.00,weatherlink.com 1.10,2013-10-11 01:21:00,
2013-10-10 21:36:00,64.5,61.0,29.99,WNW,293,1.0,3.0,89,0.00,,,0.00,weatherlink.com 1.10,2013-10-11 01:36:00,
2013-10-10 21:51:00,63.3,60.0,29.99,WNW,293,0.0,1.0,90,0.00,,,0.00,weatherlink.com 1.10,2013-10-11 01:51:00,
2013-10-10 22:06:00,62.3,60.0,29.99,WNW,293,0.0,1.0,92,0.00,,,0.00,weatherlink.com 1.10,2013-10-11 02:06:00,
2013-10-10 22:21:00,61.3,59.0,29.99,WNW,293,0.0,0.0,92,0.00,,,0.00,weatherlink.com 1.10,2013-10-11 02:21:00,
2013-10-10 22:36:00,60.8,59.0,29.99,WNW,293,0.0,1.0,93,0.00,,,0.00,weatherlink.com 1.10,2013-10-11 02:36:00,
2013-10-10 22:51:00,61.4,59.0,29.99,WNW,293,0.0,1.0,91,0.00,,,0.00,weatherlink.com 1.10,2013-10-11 02:51:00,
2013-10-10 23:06:00,60.9,58.0,29.99,NNE,23,0.0,0.0,91,0.00,,,0.00,weatherlink.com 1.10,2013-10-11 03:06:00,
2013-10-10 23:21:00,59.8,58.0,29.98,NNE,23,0.0,0.0,93,0.00,,,0.00,weatherlink.com 1.10,2013-10-11 03:21:00,
2013-10-10 23:36:00,59.8,58.0,29.98,NNE,23,0.0,0.0,92,0.00,,,0.00,weatherlink.com 1.10,2013-10-11 03:36:00,
2013-10-10 23:51:00,59.2,57.0,29.97,NNE,23,0.0,0.0,93,0.00,,,0.00,weatherlink.com 1.10,2013-10-11 03:51:00,